createdAt,value
2023-03-31T00:04:53.584Z,97197.88
2023-03-31T00:10:18.387Z,97193.47
2023-03-31T00:15:39.489Z,97178.13
2023-03-31T00:21:14.514Z,97178.56
2023-03-31T00:26:35.578Z,97193.47
2023-03-31T00:31:57.353Z,97176.50
2023-03-31T00:37:18.862Z,97175.78
2023-03-31T00:42:43.536Z,97157.63
2023-03-31T00:48:11.953Z,97167.78
2023-03-31T00:53:33.624Z,97146.25
2023-03-31T00:58:58.056Z,97144.31
2023-03-31T01:04:22.708Z,97131.63
2023-03-31T01:09:47.418Z,97126.31
2023-03-31T01:15:09.134Z,97119.28
2023-03-31T01:20:45.463Z,97107.69
2023-03-31T01:26:24.764Z,97090.88
2023-03-31T01:31:52.551Z,97075.06
2023-03-31T01:37:23.331Z,97069.66
2023-03-31T01:42:53.798Z,97048.16
2023-03-31T01:48:18.669Z,97052.56
2023-03-31T01:53:55.662Z,97043.97
2023-03-31T01:59:31.217Z,97025.84
2023-03-31T02:05:05.542Z,97015.78
2023-03-31T02:10:27.507Z,97011.53
2023-03-31T02:15:54.824Z,97004.78
2023-03-31T02:21:16.537Z,97003.84
2023-03-31T02:26:40.316Z,97009.81
2023-03-31T02:32:04.202Z,97007.31
2023-03-31T02:37:25.909Z,96996.03
2023-03-31T02:42:46.647Z,96991.53
2023-03-31T02:48:08.737Z,96986.94
2023-03-31T02:53:35.416Z,96986.66
2023-03-31T02:59:33.808Z,96977.91
2023-03-31T03:05:13.635Z,96980.84
2023-03-31T03:10:56.437Z,96982.81
2023-03-31T03:16:27.539Z,96978.50
2023-03-31T03:21:48.543Z,96962.94
2023-03-31T03:27:09.711Z,96973.13
2023-03-31T03:32:31.131Z,96959.75
2023-03-31T03:37:52.210Z,96952.03
2023-03-31T03:43:12.826Z,96946.69
2023-03-31T03:48:33.981Z,96923.97
2023-03-31T03:53:54.686Z,96909.69
2023-03-31T03:59:15.749Z,96906.31
2023-03-31T04:04:36.801Z,96898.84
2023-03-31T04:09:57.638Z,96899.56
2023-03-31T04:15:18.367Z,96883.09
2023-03-31T04:20:39.118Z,96877.19
2023-03-31T04:25:59.992Z,96877.28
2023-03-31T04:31:25.502Z,96861.81
2023-03-31T04:36:50.617Z,96860.84
2023-03-31T04:42:11.727Z,96865.69
2023-03-31T04:47:32.375Z,96852.59
2023-03-31T04:52:53.022Z,96855.88
2023-03-31T04:58:14.193Z,96837.69
2023-03-31T05:03:34.931Z,96827.66
2023-03-31T05:08:55.688Z,96836.34
2023-03-31T05:14:16.648Z,96824.91
2023-03-31T05:19:37.576Z,96815.06
2023-03-31T05:24:58.261Z,96808.09
2023-03-31T05:30:19.132Z,96791.72
2023-03-31T05:35:39.789Z,96776.31
2023-03-31T05:41:00.671Z,96768.03
2023-03-31T05:46:21.441Z,96762.91
2023-03-31T05:51:42.511Z,96752.97
2023-03-31T05:57:03.511Z,96747.09
2023-03-31T06:02:24.951Z,96754.75
2023-03-31T06:07:45.888Z,96733.38
2023-03-31T06:13:08.056Z,96739.53
2023-03-31T06:18:29.879Z,96735.72
2023-03-31T06:23:55.070Z,96726.34
2023-03-31T06:29:15.674Z,96718.22
2023-03-31T06:34:36.951Z,96716.00
2023-03-31T06:39:58.932Z,96713.78
2023-03-31T06:45:19.866Z,96706.81
2023-03-31T06:50:46.305Z,96709.63
2023-03-31T06:56:07.737Z,96708.94
2023-03-31T07:01:28.919Z,96705.19
2023-03-31T07:06:49.452Z,96693.28
2023-03-31T07:12:10.466Z,96689.81
2023-03-31T07:17:31.165Z,96680.28
2023-03-31T07:22:51.839Z,96684.81
2023-03-31T07:28:12.468Z,96683.66
2023-03-31T07:33:33.151Z,96671.00
2023-03-31T07:38:54.018Z,96665.31
2023-03-31T07:44:16.039Z,96657.81
2023-03-31T07:49:36.707Z,96655.53
2023-03-31T07:54:58.080Z,96639.94
2023-03-31T08:00:19.253Z,96623.59
2023-03-31T08:05:40.125Z,96630.00
2023-03-31T08:11:00.982Z,96630.88
2023-03-31T08:16:22.445Z,96633.53
2023-03-31T08:21:43.215Z,96641.16
2023-03-31T08:27:03.862Z,96621.28
2023-03-31T08:32:24.894Z,96612.09
2023-03-31T08:37:46.041Z,96609.41
2023-03-31T08:43:10.667Z,96606.88
2023-03-31T08:48:45.149Z,96608.38
2023-03-31T08:54:15.114Z,96599.31
2023-03-31T08:59:37.716Z,96602.88
2023-03-31T09:11:23.881Z,96585.44
2023-03-31T09:42:00.683Z,96542.91
2023-03-31T09:47:44.779Z,96528.41
2023-03-31T09:53:05.380Z,96528.13
2023-03-31T09:58:26.360Z,96509.88
2023-03-31T10:04:15.723Z,96504.22
2023-03-31T10:09:36.465Z,96493.22
2023-03-31T10:15:20.259Z,96483.94
2023-03-31T10:20:44.891Z,96477.59
2023-03-31T10:26:06.139Z,96472.16
2023-03-31T10:31:36.684Z,96462.75
2023-03-31T10:37:04.717Z,96448.81
2023-03-31T10:43:20.827Z,96455.44
2023-03-31T11:14:27.136Z,96426.53
2023-03-31T11:20:36.621Z,96422.22
2023-03-31T11:26:03.511Z,96419.19
2023-03-31T11:32:17.010Z,96418.16
2023-03-31T11:45:43.874Z,96273.81
2023-03-31T11:51:44.537Z,96315.13
2023-03-31T11:57:20.919Z,96340.78
2023-03-31T12:11:01.686Z,96333.06
2023-03-31T12:16:41.469Z,96320.38
2023-03-31T12:22:17.024Z,96303.44
2023-03-31T12:28:39.086Z,96298.91
2023-03-31T12:34:34.791Z,96292.69
2023-03-31T12:49:21.422Z,96260.47
2023-03-31T13:18:52.488Z,96186.78
2023-03-31T13:24:13.967Z,96166.88
2023-03-31T13:29:44.717Z,96168.22
2023-03-31T13:35:07.877Z,96140.56
2023-03-31T13:41:16.268Z,96139.22
2023-03-31T13:46:56.205Z,96155.94
2023-03-31T13:52:25.427Z,96148.84
2023-03-31T13:58:34.482Z,96192.41
2023-03-31T14:04:36.508Z,96183.94
2023-03-31T14:34:27.164Z,96178.41
2023-03-31T14:39:53.266Z,96181.72
2023-03-31T14:45:18.849Z,96173.09
2023-03-31T15:10:08.188Z,96130.09
2023-03-31T15:28:39.615Z,96093.22
2023-03-31T15:34:00.792Z,96095.66
2023-03-31T15:39:25.118Z,96078.50
2023-03-31T15:45:56.223Z,96085.09
2023-03-31T15:51:18.021Z,96097.16
2023-03-31T15:56:45.983Z,96094.94
2023-03-31T16:02:11.097Z,96090.22
2023-03-31T16:08:18.770Z,96108.50
2023-03-31T16:20:19.540Z,96123.34
2023-03-31T16:33:55.354Z,96120.06
2023-03-31T16:52:22.716Z,96100.69
2023-03-31T16:57:44.229Z,96098.22
2023-03-31T17:03:18.870Z,96099.13
2023-03-31T17:08:40.134Z,96117.53
2023-03-31T17:14:02.329Z,96120.44
2023-03-31T17:19:23.158Z,96121.38
2023-03-31T17:31:35.204Z,96134.13
2023-03-31T17:36:57.798Z,96135.19
2023-03-31T17:42:20.895Z,96128.56
2023-03-31T17:47:44.324Z,96139.88
2023-03-31T17:53:09.334Z,96122.44
2023-03-31T18:11:44.357Z,96148.06
2023-03-31T18:17:04.970Z,96163.88
2023-03-31T18:22:26.714Z,96164.13
2023-03-31T18:27:49.157Z,96163.22
2023-03-31T18:33:11.055Z,96175.59
2023-03-31T18:38:32.674Z,96150.28
2023-03-31T18:43:53.449Z,96168.75
2023-03-31T18:49:15.506Z,96166.22
2023-03-31T18:54:36.666Z,96167.47
2023-03-31T18:59:57.847Z,96172.34
2023-03-31T19:05:18.744Z,96174.88
2023-03-31T19:10:39.347Z,96166.88
2023-03-31T19:16:00.018Z,96177.44
2023-03-31T19:21:21.051Z,96167.97
2023-03-31T19:26:42.056Z,96184.41
2023-03-31T19:32:02.776Z,96176.47
2023-03-31T19:37:24.236Z,96183.09
2023-03-31T19:42:47.974Z,96172.03
2023-03-31T19:48:08.758Z,96169.25
2023-03-31T19:53:52.349Z,96179.59
2023-03-31T19:59:13.419Z,96178.47
2023-03-31T20:04:34.443Z,96184.22
2023-03-31T20:09:55.625Z,96181.97
2023-03-31T20:15:17.054Z,96175.59
2023-03-31T20:20:38.331Z,96171.25
2023-03-31T20:26:00.964Z,96167.22
2023-03-31T20:31:23.799Z,96163.56
2023-03-31T20:36:46.467Z,96162.50
2023-03-31T20:42:17.467Z,96164.66
2023-03-31T20:48:06.362Z,96170.25
2023-03-31T21:06:12.189Z,96163.13
2023-03-31T21:11:34.176Z,96150.25
2023-03-31T21:16:55.744Z,96145.69
2023-03-31T21:22:18.149Z,96152.28
2023-03-31T21:27:39.606Z,96144.16
2023-03-31T21:33:01.219Z,96148.63
2023-03-31T21:38:22.875Z,96143.38
2023-03-31T21:43:44.287Z,96151.09
2023-03-31T21:49:06.477Z,96150.19
2023-03-31T21:54:27.908Z,96155.03
2023-03-31T21:59:49.604Z,96157.09
2023-03-31T22:05:11.200Z,96147.19
2023-03-31T22:10:33.085Z,96145.13
2023-03-31T22:15:54.715Z,96137.50
2023-03-31T22:21:21.751Z,96150.91
2023-03-31T22:26:43.349Z,96152.53
2023-03-31T22:32:05.044Z,96149.88
2023-03-31T22:37:26.413Z,96140.75
2023-03-31T22:42:48.520Z,96139.31
2023-03-31T22:48:10.232Z,96132.81
2023-03-31T22:53:32.495Z,96137.09
2023-03-31T22:58:57.007Z,96133.31
2023-03-31T23:04:18.715Z,96135.69
2023-03-31T23:09:40.433Z,96145.22
2023-03-31T23:15:02.389Z,96144.78
2023-03-31T23:20:24.715Z,96135.91
2023-03-31T23:25:46.029Z,96146.63
2023-03-31T23:31:07.626Z,96128.34
2023-03-31T23:36:28.961Z,96130.63
2023-03-31T23:41:51.262Z,96131.41
2023-03-31T23:47:12.669Z,96127.19
2023-03-31T23:52:35.978Z,96125.84
2023-03-31T23:57:57.569Z,96124.41
